AirNav   Air Wisconsin pilot careers
 
 1477 users online  

KCTJ West Georgia Regional Airport-O V Gray Field
Carrollton, Georgia, USA

GOING TO CARROLLTON?


FAA INFORMATION EFFECTIVE 13 SEPTEMBER 2018

Location

FAA Identifier: CTJ
Lat/Long: 33-37-54.1072N / 085-09-08.1509W
33-37.901787N / 085-09.135848W
33.6316964 / -85.1522641
(estimated)
Elevation: 1164.5 ft. / 354.9 m (surveyed)
Variation: 04W (2005)
From city: 5 miles NW of CARROLLTON, GA
Time zone: UTC -4 (UTC -5 during Standard Time)
Zip code: 30117

Airport Operations

Airport use: Open to the public
Activation date: 10/1970
Control tower: no
ARTCC: ATLANTA CENTER
FSS: MACON FLIGHT SERVICE STATION
NOTAMs facility: MCN (NOTAM-D service available)
Attendance: MON-FRI 0800-1700, ALL SAT 0930-1600, ALL SUN 1300-1700
Wind indicator: lighted
Segmented circle: yes
Lights: HIRL RWY 17/35 PRESET MED INTST DUSK-2200, AFT 2200 ACTVT - CTAF. ACTVT PAPI RWYS 17 & 35 - CTAF.
Beacon: white-green (lighted land airport)
Operates sunset to sunrise.

Airport Communications

CTAF/UNICOM: 122.975
WX AWOS-3: 118.175 (770-214-9667)
ATLANTA APPROACH: 121.0 [0645-2300]
ATLANTA DEPARTURE: 121.0 [0645-2300]
CLEARANCE DELIVERY: 121.6
WX AWOS-3 at PUJ (20 nm NE): 126.225 (770-445-3870)

Nearby radio navigation aids

VOR radial/distance  VOR name  Freq  Var
RMGr182/31.9ROME VORTAC115.4001E
LGCr003/35.1LAGRANGE VORTAC115.6001E
ATLr275/35.8ATLANTA VORTAC116.9005W

 
NDB name  Hdg/Dist  Freq  Var  ID
CARROLLTON349/4.127804WGPQ --. .--. --.-
COWETA COUNTY319/31.423403WEQQ . --.- --.-
CARTERSVILLE208/37.430804WEVZ . ...- --..
PECAT306/38.831605WFFC ..-. ..-. -.-.

Airport Services

Fuel available: 100LL JET-A1 MOGAS
Parking: hangars and tiedowns
Airframe service: MAJOR
Powerplant service: MAJOR
Bottled oxygen: NONE
Bulk oxygen: HIGH

Runway Information

Runway 17/35

Dimensions: 5503 x 100 ft. / 1677 x 30 m
Surface: asphalt, in good condition
Weight bearing capacity: 
Single wheel: 43.0
Double wheel: 56.0
Double tandem: 83.0
Runway edge lights: high intensity
RUNWAY 17  RUNWAY 35
Latitude: 33-38.337483N33-37.466088N
Longitude: 085-09.286862W085-08.984835W
Elevation: 1164.4 ft.1110.2 ft.
Gradient: 1.0% DOWN1.0% UP
Traffic pattern: leftleft
Runway heading: 168 magnetic, 164 true348 magnetic, 344 true
Markings: nonprecision, in good conditionprecision, in good condition
Visual slope indicator: 4-light PAPI on left (3.00 degrees glide path)4-light PAPI on left (3.00 degrees glide path)
Touchdown point: yes, no lightsyes, no lights
Instrument approach: LOC/GS
Obstructions: 10 ft. gnd, 201 ft. from runway, 400 ft. right of centerline
10 FT HIGH GROUND LOCATED 176 FT FROM E.O.R, 460 FT RIGHT
17 ft. trees, 319 ft. from runway, 222 ft. left of centerline, 7:1 slope to clear

Airport Ownership and Management from official FAA records

Ownership: Publicly-owned
Owner: WEST GA ARPT AUTH
P.O. BOX 146
BOWDEN JUNCTION, GA 30109
Phone (770) 537-5234
Manager: SUSAN HEATH
P.O. BOX 146
BOWDEN JUNCTION, GA 30109
Phone (770) 537-5234

Airport Operational Statistics

Aircraft based on the field: 103
Single engine airplanes: 86
Multi engine airplanes: 11
Jet airplanes: 4
Helicopters: 2
    
Aircraft operations: avg 82/day *
49% transient general aviation
49% local general aviation
2% military
* for 12-month period ending 31 December 2017

Additional Remarks

DEER ON & NEAR RWYS AT ALL TIMES.

Instrument Procedures

NOTE: All procedures below are presented as PDF files. If you need a reader for these files, you should download the free Adobe Reader.

NOT FOR NAVIGATION. Please procure official charts for flight.
FAA instrument procedures published for use from 13 September 2018 at 0901Z to 11 October 2018 at 0900Z.

 
STARs - Standard Terminal Arrivals
DEHAN ONE (RNAV)   2 pages: [1] [2] (290KB)
 
IAPs - Instrument Approach Procedures
ILS OR LOC RWY 35   download (224KB)
RNAV (GPS) RWY 17   download (215KB)
RNAV (GPS) RWY 35   download (221KB)
NOTE: Special Alternate Minimums apply   download (17KB)
NOTE: Special Take-Off Minimums/Departure Procedures apply   download (189KB)

Other nearby airports with instrument procedures:

KPUJ - Paulding Northwest Atlanta Airport (20 nm NE)
4A4 - Polk County Airport - Cornelius Moore Field (23 nm N)
KCCO - Newnan Coweta County Airport (27 nm SE)
KFTY - Fulton County Airport-Brown Field (33 nm E)
KVPC - Cartersville Airport (33 nm NE)
 
Loc | Ops | Rwys | IFR | FBO | Links
Com | Nav | Svcs | Stats | Notes


 
Area around KCTJ (West Georgia Regional Airport-O V Gray Field)
 
Road maps at: MapQuest Bing Google
 
Aerial photo
WARNING: Photo may not be current or correct
Aerial photo of KCTJ (West Georgia Regional Airport-O V Gray Field)
Photo courtesy of AirNav, LLC
Photo taken 22-Dec-2012
looking south.

Do you have a better or more recent aerial photo of West Georgia Regional Airport-O V Gray Field that you would like to share? If so, please send us your photo.

 
Sectional chart

 
Airport distance calculator
Flying to West Georgia Regional Airport-O V Gray Field? Find the distance to fly.

From to KCTJ

Sunrise and sunset
Times for 18-Sep-2018
 Local
(UTC-4)
 Zulu
(UTC)
Morning civil twilight07:0211:02
Sunrise07:2711:27
Sunset19:4323:43
Evening civil twilight20:0700:07

Current date and time
Zulu (UTC)  18-Sep-2018 20:35:06
Local (UTC-4)  18-Sep-2018 16:35:06
 
METAR
KCTJ 182010Z AUTO 00000KT 10SM SCT050 32/18 A2998 RMK AO2 T03170182
KPUJ 
20nm NE 
182015Z AUTO 00000KT 7SM CLR 32/17 A2996 RMK AO2
TAF
KFTY 
33nm E 
181729Z 1818/1918 33011KT P6SM SKC FM190000 29004KT P6SM SCT250 FM190200 00000KT P6SM FEW250 FM191500 07004KT P6SM FEW250
KANB 
35nm W 
181732Z 1818/1918 33006KT P6SM SCT050 FM190100 00000KT P6SM FEW100 FM191400 06003KT P6SM SCT250
KATL 
35nm E 
181933Z 1820/1924 29006G15KT P6SM FEW060 FEW150 FM190200 32004KT P6SM FEW250 FM191100 01004KT P6SM FEW250 FM191400 07004KT P6SM FEW250
KRYY 
36nm NE 
181729Z 1818/1918 33005KT P6SM SKC FM182300 29004KT P6SM SCT250 FM190200 00000KT P6SM FEW250 FM191200 00000KT 6SM BR FEW250 FM191400 VRB03KT P6SM FEW250
KMGE 
36nm NE 
162100Z 1621/1803 28009KT 9999 SCT030 BKN050 QNH2975INS TEMPO 1621/1623 8000 -RA BECMG 1711/1712 26006KT 9999 BKN090 QNH2993INS TX32/1721Z TN20/1712Z
NOTAMs
Click for the latest NOTAMs
NOTAMs are issued by the DoD/FAA and will open in a separate window not controlled by AirNav.

 

 
 

FBO, Fuel Providers, and Aircraft Ground Support

  
 Business Name 
 
 Contact 
 
 Services / Description 
 
Fuel Prices
 
Comments
  
West Georgia Regional Airport 770-834-0061
770-354-5927
[web site]
[email]
Aviation fuel, Aircraft ground handling, Aircraft parking (ramp or tiedown), Hangars, Hangar leasing / sales, GPU / Power cart, ...

More info about West Georgia Regional Airport
Shell
100LL Jet A Mogas
FS $4.69 $3.99 --- 
SS $4.09 $3.59 $3.89 
 Updated 17-Sep-2018
 
   10 read write
FS=Full service
SS=Self service
Update Fuel Prices
 

Would you like to see your business listed on this page?

 If your business provides an interesting product or service to pilots, flight crews, aircraft, or users of the West Georgia Regional Airport-O V Gray Field, you should consider listing it here.  To start the listing process, click on the button below
 
Add a business
 

Other Pages about West Georgia Regional Airport-O V Gray Field

Update a link
 
Copyright © AirNav, LLC. All rights reserved. Privacy Policy  Contact